createdAt,value
2018-08-24T00:01:02.620Z,20.80
2018-08-24T00:03:31.701Z,20.70
2018-08-24T00:06:00.691Z,20.70
2018-08-24T00:08:29.712Z,20.80
2018-08-24T00:10:58.729Z,20.80
2018-08-24T00:13:27.730Z,20.80
2018-08-24T00:15:56.796Z,20.80
2018-08-24T00:18:25.873Z,20.80
2018-08-24T00:20:54.880Z,20.80
2018-08-24T00:23:23.944Z,20.80
2018-08-24T00:25:52.963Z,20.90
2018-08-24T00:28:21.973Z,21.00
2018-08-24T00:30:50.937Z,21.00
2018-08-24T00:33:19.969Z,21.00
2018-08-24T00:35:48.989Z,21.10
2018-08-24T00:38:17.995Z,21.10
2018-08-24T00:40:47.104Z,21.10
2018-08-24T00:43:16.085Z,21.00
2018-08-24T00:45:45.130Z,20.90
2018-08-24T00:48:14.113Z,20.90
2018-08-24T00:50:43.124Z,20.80
2018-08-24T00:53:12.148Z,20.90
2018-08-24T00:55:41.453Z,20.80
2018-08-24T00:58:10.448Z,20.80
2018-08-24T01:00:45.761Z,20.80
2018-08-24T01:03:15.000Z,20.80
2018-08-24T01:05:44.027Z,20.80
2018-08-24T01:08:13.041Z,20.80
2018-08-24T01:10:42.049Z,20.70
2018-08-24T01:13:13.911Z,20.50
2018-08-24T01:15:50.001Z,20.30
2018-08-24T01:18:21.900Z,20.20
2018-08-24T01:20:53.105Z,19.60
2018-08-24T01:23:23.267Z,19.20
2018-08-24T01:25:52.309Z,18.90
2018-08-24T01:28:21.604Z,18.70
2018-08-24T01:30:50.860Z,18.60
2018-08-24T01:33:20.121Z,18.70
2018-08-24T01:35:49.164Z,18.70
2018-08-24T01:38:18.408Z,18.90
2018-08-24T01:40:47.413Z,19.00
2018-08-24T01:43:16.419Z,19.00
2018-08-24T01:45:45.720Z,19.00
2018-08-24T01:48:14.736Z,19.00
2018-08-24T01:50:43.728Z,19.00
2018-08-24T01:53:12.769Z,19.00
2018-08-24T01:55:41.785Z,18.90
2018-08-24T01:58:10.881Z,18.90
2018-08-24T02:00:39.984Z,18.90
2018-08-24T02:03:09.021Z,18.90
2018-08-24T02:05:38.042Z,18.90
2018-08-24T02:08:07.065Z,18.90
2018-08-24T02:10:36.148Z,18.90
2018-08-24T02:13:10.565Z,18.90
2018-08-24T02:15:44.742Z,18.80
2018-08-24T02:18:19.326Z,18.90
2018-08-24T02:22:58.485Z,18.80
2018-08-24T02:25:27.487Z,18.80
2018-08-24T02:27:56.633Z,18.60
2018-08-24T02:30:25.672Z,18.50
2018-08-24T02:32:54.690Z,18.50
2018-08-24T02:35:23.732Z,18.40
2018-08-24T02:37:52.755Z,18.40
2018-08-24T02:40:21.748Z,18.30
2018-08-24T02:42:50.768Z,18.40
2018-08-24T02:45:19.768Z,18.30
2018-08-24T02:47:48.859Z,18.20
2018-08-24T02:50:17.831Z,18.10
2018-08-24T02:52:46.852Z,18.00
2018-08-24T02:55:15.938Z,18.00
2018-08-24T02:57:44.966Z,18.00
2018-08-24T03:00:14.040Z,17.90
2018-08-24T03:02:43.072Z,17.90
2018-08-24T03:05:12.165Z,17.90
2018-08-24T03:07:41.332Z,17.80
2018-08-24T03:10:10.337Z,17.70
2018-08-24T03:12:39.386Z,17.70
2018-08-24T03:15:08.478Z,17.60
2018-08-24T03:17:52.828Z,17.60
2018-08-24T03:20:22.283Z,17.60
2018-08-24T03:22:51.272Z,17.60
2018-08-24T03:25:20.313Z,17.60
2018-08-24T03:27:49.313Z,17.50
2018-08-24T03:30:18.330Z,17.60
2018-08-24T03:32:47.382Z,17.50
2018-08-24T03:35:16.345Z,17.60
2018-08-24T03:37:45.623Z,17.50
2018-08-24T03:40:14.613Z,17.40
2018-08-24T03:42:43.625Z,17.40
2018-08-24T03:45:12.709Z,17.30
2018-08-24T03:47:41.781Z,17.30
2018-08-24T03:50:10.832Z,17.30
2018-08-24T03:52:39.858Z,17.30
2018-08-24T03:55:08.916Z,17.20
2018-08-24T03:57:37.914Z,17.20
2018-08-24T04:00:07.014Z,17.20
2018-08-24T04:02:36.025Z,17.20
2018-08-24T04:05:05.213Z,17.20
2018-08-24T04:07:34.248Z,17.20
2018-08-24T04:10:03.241Z,17.20
2018-08-24T04:12:32.316Z,17.20
2018-08-24T04:15:01.298Z,17.30
2018-08-24T04:17:35.580Z,17.30
2018-08-24T04:20:04.665Z,17.20
2018-08-24T04:22:33.894Z,17.30
2018-08-24T04:25:02.900Z,17.30
2018-08-24T04:27:31.918Z,17.30
2018-08-24T04:30:00.945Z,17.40
2018-08-24T04:32:29.929Z,17.40
2018-08-24T04:34:59.003Z,17.50
2018-08-24T04:37:28.002Z,17.40
2018-08-24T04:39:57.029Z,17.40
2018-08-24T04:42:26.038Z,17.40
2018-08-24T04:44:55.076Z,17.30
2018-08-24T04:47:24.161Z,17.30
2018-08-24T04:49:53.840Z,17.30
2018-08-24T04:52:23.337Z,17.30
2018-08-24T04:54:52.452Z,17.50
2018-08-24T04:57:21.773Z,17.50
2018-08-24T04:59:50.812Z,17.50
2018-08-24T05:02:19.823Z,17.60
2018-08-24T05:04:48.870Z,17.60
2018-08-24T05:07:17.884Z,17.60
2018-08-24T05:09:46.912Z,17.60
2018-08-24T05:12:15.925Z,17.60
2018-08-24T05:14:44.900Z,17.70
2018-08-24T05:17:13.962Z,17.70
2018-08-24T05:19:42.968Z,17.70
2018-08-24T05:22:11.999Z,17.70
2018-08-24T05:24:41.078Z,17.80
2018-08-24T05:27:10.076Z,17.80
2018-08-24T05:29:39.114Z,17.90
2018-08-24T05:32:08.153Z,17.90
2018-08-24T05:34:37.156Z,17.90
2018-08-24T05:37:06.201Z,17.90
2018-08-24T05:39:35.204Z,17.90
2018-08-24T05:42:04.248Z,18.00
2018-08-24T05:44:33.231Z,18.10
2018-08-24T05:47:02.353Z,18.20
2018-08-24T05:49:31.383Z,18.20
2018-08-24T05:52:00.424Z,18.30
2018-08-24T05:54:29.450Z,18.30
2018-08-24T05:56:58.497Z,18.40
2018-08-24T05:59:27.600Z,18.40
2018-08-24T06:01:56.640Z,18.40
2018-08-24T06:04:25.924Z,18.40
2018-08-24T06:06:55.828Z,18.40
2018-08-24T06:09:24.821Z,18.40
2018-08-24T06:11:53.833Z,18.50
2018-08-24T06:14:22.870Z,18.40
2018-08-24T06:16:57.168Z,18.40
2018-08-24T06:19:26.196Z,18.40
2018-08-24T06:21:55.263Z,18.50
2018-08-24T06:24:24.281Z,18.60
2018-08-24T06:26:53.245Z,18.70
2018-08-24T06:29:22.289Z,18.90
2018-08-24T06:31:51.278Z,19.00
2018-08-24T06:34:20.318Z,19.20
2018-08-24T06:36:49.307Z,19.30
2018-08-24T06:39:18.384Z,19.30
2018-08-24T06:41:47.657Z,19.40
2018-08-24T06:44:16.649Z,19.50
2018-08-24T06:46:45.689Z,19.60
2018-08-24T06:49:14.695Z,19.70
2018-08-24T06:51:43.749Z,19.90
2018-08-24T06:54:12.762Z,20.30
2018-08-24T06:56:41.805Z,20.60
2018-08-24T06:59:10.929Z,21.20
2018-08-24T07:01:40.001Z,21.70
2018-08-24T07:04:09.311Z,22.20
2018-08-24T07:06:38.372Z,22.30
2018-08-24T07:09:08.034Z,22.00
2018-08-24T07:11:37.296Z,21.60
2018-08-24T07:14:06.331Z,21.20
2018-08-24T07:16:35.358Z,20.90
2018-08-24T07:19:04.399Z,20.70
2018-08-24T07:21:33.406Z,20.60
2018-08-24T07:24:02.458Z,20.30
2018-08-24T07:26:31.485Z,20.00
2018-08-24T07:29:00.506Z,19.90
2018-08-24T07:31:29.484Z,19.70
2018-08-24T07:33:58.572Z,19.50
2018-08-24T07:36:27.589Z,19.40
2018-08-24T07:38:56.916Z,19.40
2018-08-24T07:41:25.965Z,19.40
2018-08-24T07:43:54.961Z,19.40
2018-08-24T07:46:23.984Z,19.40
2018-08-24T07:48:53.093Z,19.50
2018-08-24T07:51:22.105Z,19.40
2018-08-24T07:53:51.178Z,19.50
2018-08-24T07:56:20.181Z,19.50
2018-08-24T07:58:49.424Z,19.70
2018-08-24T08:01:18.461Z,19.90
2018-08-24T08:03:47.508Z,20.00
2018-08-24T08:06:16.537Z,20.20
2018-08-24T08:08:45.834Z,20.20
2018-08-24T08:11:14.840Z,20.50
2018-08-24T08:13:43.825Z,20.50
2018-08-24T08:16:12.861Z,20.50
2018-08-24T08:18:41.970Z,20.30
2018-08-24T08:21:10.969Z,20.30
2018-08-24T08:23:39.983Z,20.30
2018-08-24T08:26:09.334Z,20.40
2018-08-24T08:28:38.357Z,20.40
2018-08-24T08:31:07.347Z,20.70
2018-08-24T08:33:36.352Z,20.90
2018-08-24T08:36:05.362Z,21.20
2018-08-24T08:38:34.421Z,21.10
2018-08-24T08:41:03.438Z,21.10
2018-08-24T08:43:32.501Z,21.20
2018-08-24T08:46:01.496Z,21.10
2018-08-24T08:48:30.482Z,20.80
2018-08-24T08:50:59.552Z,21.00
2018-08-24T08:53:28.577Z,21.30
2018-08-24T08:55:57.588Z,21.70
2018-08-24T08:58:26.590Z,22.10
2018-08-24T09:00:55.708Z,21.80
2018-08-24T09:03:24.708Z,21.40
2018-08-24T09:05:53.782Z,20.90
2018-08-24T09:08:23.005Z,20.50
2018-08-24T09:10:52.301Z,20.30
2018-08-24T09:13:21.310Z,20.10
2018-08-24T09:15:50.352Z,20.10
2018-08-24T09:18:24.797Z,20.40
2018-08-24T09:20:59.038Z,21.20
2018-08-24T09:23:33.544Z,22.10
2018-08-24T09:28:11.716Z,22.10
2018-08-24T09:30:46.101Z,22.40
2018-08-24T09:33:15.130Z,24.40
2018-08-24T09:35:44.299Z,25.40
2018-08-24T09:38:13.341Z,24.00
2018-08-24T09:40:47.557Z,23.50
2018-08-24T09:43:21.723Z,24.10
2018-08-24T09:45:50.716Z,25.40
2018-08-24T09:48:24.962Z,27.70
2018-08-24T09:50:59.432Z,29.30
2018-08-24T09:53:33.747Z,30.40
2018-08-24T09:56:02.756Z,30.40
2018-08-24T09:58:31.873Z,28.60
2018-08-24T10:01:06.023Z,27.70
2018-08-24T10:03:40.306Z,25.80
2018-08-24T10:06:14.723Z,24.90
2018-08-24T10:08:47.807Z,24.20
2018-08-24T10:11:16.805Z,23.50
2018-08-24T10:13:45.925Z,22.30
2018-08-24T10:16:15.503Z,21.10
2018-08-24T10:18:44.493Z,20.60
2018-08-24T10:21:13.510Z,20.80
2018-08-24T10:23:42.552Z,21.00
2018-08-24T10:26:11.588Z,22.80
2018-08-24T10:28:40.680Z,25.30
2018-08-24T10:31:09.715Z,27.80
2018-08-24T10:33:38.819Z,27.60
2018-08-24T10:36:07.821Z,27.70
2018-08-24T10:38:36.824Z,28.50
2018-08-24T10:41:05.878Z,28.50
2018-08-24T10:43:35.160Z,26.00
2018-08-24T10:46:04.157Z,24.70
2018-08-24T10:48:33.165Z,24.80
2018-08-24T10:51:02.208Z,26.60
2018-08-24T10:53:31.246Z,29.00
2018-08-24T10:56:00.277Z,29.60
2018-08-24T10:58:29.281Z,28.50
2018-08-24T11:00:58.309Z,26.90
2018-08-24T11:03:27.325Z,26.40
2018-08-24T11:05:56.389Z,25.80
2018-08-24T11:08:25.393Z,25.20
2018-08-24T11:10:54.417Z,25.40
2018-08-24T11:13:23.400Z,26.00
2018-08-24T11:15:52.637Z,27.40
2018-08-24T11:18:21.664Z,28.20
2018-08-24T11:20:50.663Z,27.00
2018-08-24T11:23:19.712Z,27.30
2018-08-24T11:25:48.961Z,27.30
2018-08-24T11:28:17.940Z,26.80
2018-08-24T11:30:46.953Z,25.40
2018-08-24T11:33:15.989Z,25.50
2018-08-24T11:35:45.029Z,25.70
2018-08-24T11:38:14.007Z,26.20
2018-08-24T11:40:43.021Z,25.90
2018-08-24T11:43:12.000Z,25.20
2018-08-24T11:45:41.066Z,25.10
2018-08-24T11:48:10.159Z,25.10
2018-08-24T11:50:39.197Z,25.10
2018-08-24T11:53:08.281Z,25.20
2018-08-24T11:55:37.297Z,25.00
2018-08-24T11:58:06.875Z,25.00
2018-08-24T12:00:35.895Z,25.30
2018-08-24T12:03:04.928Z,24.80
2018-08-24T12:05:34.020Z,24.50
2018-08-24T12:08:03.151Z,24.60
2018-08-24T12:10:32.177Z,24.30
2018-08-24T12:13:01.181Z,24.50
2018-08-24T12:15:30.221Z,24.40
2018-08-24T12:17:59.297Z,24.10
2018-08-24T12:20:28.314Z,24.10
2018-08-24T12:22:57.401Z,24.20
2018-08-24T12:25:26.406Z,24.10
2018-08-24T12:27:55.443Z,23.70
2018-08-24T12:30:24.468Z,23.30
2018-08-24T12:32:53.772Z,23.30
2018-08-24T12:35:22.825Z,23.60
2018-08-24T12:37:51.890Z,23.60
2018-08-24T12:40:20.925Z,23.80
2018-08-24T12:42:50.009Z,24.00
2018-08-24T12:45:19.069Z,24.10
2018-08-24T12:47:48.086Z,24.20
2018-08-24T12:50:17.264Z,24.40
2018-08-24T12:52:46.285Z,24.60
2018-08-24T12:55:15.328Z,24.30
2018-08-24T12:57:44.345Z,24.30
2018-08-24T13:00:13.367Z,24.40
2018-08-24T13:02:42.472Z,24.50
2018-08-24T13:05:11.616Z,24.40
2018-08-24T13:07:40.686Z,24.00
2018-08-24T13:10:09.727Z,23.80
2018-08-24T13:12:38.754Z,23.70
2018-08-24T13:15:07.844Z,23.80
2018-08-24T13:17:36.829Z,24.00
2018-08-24T13:20:06.777Z,24.20
2018-08-24T13:22:35.832Z,24.20
2018-08-24T13:25:04.901Z,24.50
2018-08-24T13:27:33.969Z,24.50
2018-08-24T13:30:02.963Z,24.70
2018-08-24T13:32:32.033Z,24.80
2018-08-24T13:35:07.411Z,24.90
2018-08-24T13:37:36.518Z,24.90
2018-08-24T13:40:05.701Z,24.80
2018-08-24T13:42:34.812Z,24.70
2018-08-24T13:45:03.892Z,24.80
2018-08-24T13:47:32.973Z,24.90
2018-08-24T13:50:01.963Z,25.10
2018-08-24T13:52:31.135Z,25.00
2018-08-24T13:55:00.233Z,24.80
2018-08-24T13:57:29.293Z,24.80
2018-08-24T13:59:58.373Z,24.60
2018-08-24T14:02:27.405Z,24.40
2018-08-24T14:04:56.536Z,24.00
2018-08-24T14:07:25.545Z,23.70
2018-08-24T14:09:54.558Z,23.30
2018-08-24T14:12:23.590Z,23.00
2018-08-24T14:14:52.680Z,22.60
2018-08-24T14:17:21.672Z,22.70
2018-08-24T14:19:50.782Z,23.00
2018-08-24T14:22:19.789Z,23.30
2018-08-24T14:24:48.907Z,23.50
2018-08-24T14:27:18.024Z,23.50
2018-08-24T14:29:47.116Z,23.50
2018-08-24T14:32:16.147Z,23.60
2018-08-24T14:34:45.363Z,23.60
2018-08-24T14:37:14.340Z,23.70
2018-08-24T14:39:43.460Z,23.80
2018-08-24T14:42:12.565Z,23.60
2018-08-24T14:44:41.579Z,23.70
2018-08-24T14:47:10.679Z,23.70
2018-08-24T14:49:39.757Z,23.50
2018-08-24T14:52:08.963Z,23.40
2018-08-24T14:54:44.397Z,23.40
2018-08-24T14:57:13.460Z,23.30
2018-08-24T14:59:42.773Z,23.10
2018-08-24T15:02:11.861Z,22.80
2018-08-24T15:04:40.917Z,22.70
2018-08-24T15:07:10.160Z,22.80
2018-08-24T15:09:39.213Z,23.00
2018-08-24T15:12:09.009Z,23.30
2018-08-24T15:14:38.053Z,23.50
2018-08-24T15:17:13.354Z,23.60
2018-08-24T15:19:42.451Z,23.70
2018-08-24T15:22:11.537Z,23.80
2018-08-24T15:24:40.562Z,23.70
2018-08-24T15:27:09.628Z,23.60
2018-08-24T15:29:38.848Z,23.60
2018-08-24T15:32:07.800Z,23.40
2018-08-24T15:34:36.828Z,23.00
2018-08-24T15:37:06.262Z,22.80
2018-08-24T15:39:35.331Z,22.70
2018-08-24T15:42:04.378Z,22.70
2018-08-24T15:44:33.381Z,22.80
2018-08-24T15:47:02.465Z,22.70
2018-08-24T15:49:31.566Z,22.70
2018-08-24T15:52:00.589Z,22.70
2018-08-24T15:54:29.706Z,22.70
2018-08-24T15:56:58.696Z,22.60
2018-08-24T15:59:27.719Z,22.50
2018-08-24T16:01:56.770Z,22.50
2018-08-24T16:04:25.774Z,22.50
2018-08-24T16:06:54.798Z,22.40
2018-08-24T16:09:23.846Z,22.40
2018-08-24T16:11:53.044Z,22.20
2018-08-24T16:14:22.085Z,22.20
2018-08-24T16:16:51.203Z,22.10
2018-08-24T16:19:20.224Z,22.00
2018-08-24T16:21:49.380Z,22.00
2018-08-24T16:24:18.433Z,21.90
2018-08-24T16:26:47.457Z,21.90
2018-08-24T16:29:16.554Z,21.90
2018-08-24T16:31:45.574Z,21.80
2018-08-24T16:34:14.606Z,21.80
2018-08-24T16:36:43.686Z,21.70
2018-08-24T16:39:12.713Z,21.60
2018-08-24T16:41:41.886Z,21.60
2018-08-24T16:44:11.212Z,21.50
2018-08-24T16:46:40.241Z,21.50
2018-08-24T16:49:09.299Z,21.40
2018-08-24T16:51:38.335Z,21.30
2018-08-24T16:54:07.360Z,21.30
2018-08-24T16:56:36.448Z,21.20
2018-08-24T16:59:05.805Z,21.20
2018-08-24T17:01:34.825Z,21.10
2018-08-24T17:04:03.878Z,21.00
2018-08-24T17:06:32.922Z,21.00
2018-08-24T17:09:02.009Z,20.90
2018-08-24T17:11:31.303Z,20.80
2018-08-24T17:14:00.359Z,20.80
2018-08-24T17:16:29.397Z,20.80
2018-08-24T17:18:58.425Z,20.70
2018-08-24T17:21:27.456Z,20.70
2018-08-24T17:23:56.515Z,20.70
2018-08-24T17:26:25.512Z,20.60
2018-08-24T17:28:55.197Z,20.50
2018-08-24T17:31:24.255Z,20.50
2018-08-24T17:33:53.302Z,20.60
2018-08-24T17:36:22.280Z,20.60
2018-08-24T17:38:51.324Z,20.60
2018-08-24T17:41:20.318Z,20.50
2018-08-24T17:43:49.320Z,20.40
2018-08-24T17:46:18.325Z,20.40
2018-08-24T17:48:47.367Z,20.30
2018-08-24T17:51:16.388Z,20.30
2018-08-24T17:53:45.429Z,20.20
2018-08-24T17:56:14.761Z,20.20
2018-08-24T17:58:43.810Z,20.20
2018-08-24T18:01:12.834Z,20.20
2018-08-24T18:03:41.826Z,20.10
2018-08-24T18:06:10.881Z,20.00
2018-08-24T18:08:39.860Z,20.00
2018-08-24T18:11:08.885Z,20.00
2018-08-24T18:13:37.870Z,20.00
2018-08-24T18:16:07.030Z,20.00
2018-08-24T18:18:36.025Z,20.00
2018-08-24T18:21:05.110Z,20.00
2018-08-24T18:23:34.120Z,20.00
2018-08-24T18:26:03.097Z,20.00
2018-08-24T18:28:32.353Z,19.90
2018-08-24T18:31:01.340Z,19.90
2018-08-24T18:33:30.384Z,19.90
2018-08-24T18:35:59.409Z,19.80
2018-08-24T18:38:28.402Z,19.70
2018-08-24T18:40:57.454Z,19.70
2018-08-24T18:43:26.568Z,19.60
2018-08-24T18:45:55.589Z,19.60
2018-08-24T18:48:24.614Z,19.70
2018-08-24T18:50:53.939Z,19.60
2018-08-24T18:53:22.878Z,19.60
2018-08-24T18:55:51.845Z,19.60
2018-08-24T18:58:20.909Z,19.60
2018-08-24T19:00:49.885Z,19.60
2018-08-24T19:03:18.959Z,19.50
2018-08-24T19:05:47.932Z,19.50
2018-08-24T19:08:16.923Z,19.50
2018-08-24T19:10:51.248Z,19.40
2018-08-24T19:13:20.251Z,19.40
2018-08-24T19:15:49.308Z,19.40
2018-08-24T19:18:23.629Z,19.40
2018-08-24T19:20:57.918Z,19.40
2018-08-24T19:23:26.900Z,19.40
2018-08-24T19:25:55.973Z,19.40
2018-08-24T19:28:30.349Z,19.30
2018-08-24T19:30:59.368Z,19.30
2018-08-24T19:33:28.376Z,19.30
2018-08-24T19:35:57.433Z,19.30
2018-08-24T19:38:26.465Z,19.20
2018-08-24T19:41:00.672Z,19.30
2018-08-24T19:43:29.855Z,19.30
2018-08-24T19:45:58.935Z,19.20
2018-08-24T19:48:33.282Z,19.20
2018-08-24T19:51:02.272Z,19.20
2018-08-24T19:53:31.288Z,19.10
2018-08-24T19:56:00.269Z,19.00
2018-08-24T19:58:34.670Z,19.00
2018-08-24T20:01:03.652Z,18.90
2018-08-24T20:03:32.690Z,18.90
2018-08-24T20:06:06.925Z,18.90
2018-08-24T20:08:41.219Z,18.90
2018-08-24T20:11:10.245Z,18.80
2018-08-24T20:13:39.257Z,18.80
2018-08-24T20:16:13.621Z,18.70
2018-08-24T20:18:42.771Z,18.70
2018-08-24T20:21:11.677Z,18.70
2018-08-24T20:23:40.745Z,18.60
2018-08-24T20:26:09.828Z,18.60
2018-08-24T20:28:38.877Z,18.60
2018-08-24T20:31:07.873Z,18.50
2018-08-24T20:33:37.214Z,18.50
2018-08-24T20:36:06.205Z,18.40
2018-08-24T20:38:35.210Z,18.40
2018-08-24T20:41:04.250Z,18.30
2018-08-24T20:43:33.297Z,18.20
2018-08-24T20:46:02.288Z,18.20
2018-08-24T20:48:31.325Z,18.20
2018-08-24T20:51:00.517Z,18.20
2018-08-24T20:53:29.532Z,18.20
2018-08-24T20:55:58.850Z,18.20
2018-08-24T20:58:28.324Z,18.20
2018-08-24T21:00:57.334Z,18.20
2018-08-24T21:03:26.340Z,18.20
2018-08-24T21:05:55.446Z,18.10
2018-08-24T21:08:24.453Z,18.10
2018-08-24T21:10:53.478Z,18.10
2018-08-24T21:13:22.482Z,18.10
2018-08-24T21:15:51.465Z,18.10
2018-08-24T21:18:20.493Z,18.10
2018-08-24T21:20:49.568Z,18.10
2018-08-24T21:23:18.542Z,18.10
2018-08-24T21:25:47.670Z,18.00
2018-08-24T21:28:16.640Z,17.90
2018-08-24T21:30:45.720Z,17.90
2018-08-24T21:33:14.733Z,17.80
2018-08-24T21:35:43.769Z,17.80
2018-08-24T21:38:12.763Z,17.80
2018-08-24T21:40:41.878Z,17.80
2018-08-24T21:43:10.933Z,17.80
2018-08-24T21:45:39.984Z,17.80
2018-08-24T21:48:09.133Z,17.70
2018-08-24T21:50:38.161Z,17.70
2018-08-24T21:53:07.316Z,17.70
2018-08-24T21:55:36.336Z,17.60
2018-08-24T21:58:05.470Z,17.60
2018-08-24T22:00:38.889Z,17.60
2018-08-24T22:03:07.929Z,17.60
2018-08-24T22:05:36.946Z,17.60
2018-08-24T22:08:06.065Z,17.60
2018-08-24T22:10:35.117Z,17.60
2018-08-24T22:13:04.148Z,17.60
2018-08-24T22:15:33.434Z,17.60
2018-08-24T22:18:02.733Z,17.50
2018-08-24T22:20:31.721Z,17.50
2018-08-24T22:23:00.766Z,17.50
2018-08-24T22:25:29.793Z,17.50
2018-08-24T22:27:58.821Z,17.50
2018-08-24T22:30:27.872Z,17.50
2018-08-24T22:32:56.853Z,17.50
2018-08-24T22:35:25.889Z,17.50
2018-08-24T22:37:54.913Z,17.40
2018-08-24T22:40:23.918Z,17.40
2018-08-24T22:42:52.932Z,17.40
2018-08-24T22:45:23.573Z,17.40
2018-08-24T22:47:53.238Z,17.40
2018-08-24T22:50:22.292Z,17.40
2018-08-24T22:52:51.332Z,17.40
2018-08-24T22:55:20.334Z,17.30
2018-08-24T22:57:49.345Z,17.30
2018-08-24T23:00:18.373Z,17.40
2018-08-24T23:02:47.376Z,17.40
2018-08-24T23:05:16.360Z,17.30
2018-08-24T23:07:45.373Z,17.30
2018-08-24T23:10:14.364Z,17.30
2018-08-24T23:12:43.398Z,17.30
2018-08-24T23:15:12.408Z,17.30
2018-08-24T23:17:41.479Z,17.30
2018-08-24T23:20:10.496Z,17.30
2018-08-24T23:22:39.520Z,17.30
2018-08-24T23:25:08.535Z,17.40
2018-08-24T23:27:37.570Z,17.30
2018-08-24T23:30:07.085Z,17.30
2018-08-24T23:32:36.160Z,17.30
2018-08-24T23:35:05.200Z,17.40
2018-08-24T23:37:34.234Z,17.40
2018-08-24T23:40:03.319Z,17.30
2018-08-24T23:42:32.364Z,17.40
2018-08-24T23:45:01.361Z,17.40
2018-08-24T23:47:30.377Z,17.40
2018-08-24T23:49:59.397Z,17.30
2018-08-24T23:52:28.457Z,17.30
2018-08-24T23:54:57.478Z,17.40
2018-08-24T23:57:26.601Z,17.40
2018-08-24T23:59:55.653Z,17.40
